Terminal Aerodrome Forecast
Issued by NWS Hastings, NE

Home | Current Version | Previous Version | Text Only | Print | Product List | Glossary On
Versions: 1 2 3 4 5 6 7 8 9 10 11 12 13 14 15 16
000
FTUS45 KGID 160549
TAFEAR
TAF
KEAR 160549Z 1606/1706 17005KT P6SM SKC
     FM161400 18010KT P6SM FEW200
     FM161600 18014G19KT P6SM SCT035
     FM161800 18014G19KT P6SM BKN035
     FM162300 16007KT P6SM BKN040
     FM170100 16006KT P6SM SCT040
      AMD LTD TO CLD VIS AND WIND=

USA.gov is the U.S. government's official web portal to all federal, state and local government web resources and services.